sensor_id;sensor_type;location;lat;lon;timestamp;P1;durP1;ratioP1;P2;durP2;ratioP2
19107;SDS011;9686;48.832;9.126;2023-05-10T00:00:31;0.40;;;0.40;;
19107;SDS011;9686;48.832;9.126;2023-05-10T00:02:57;0.30;;;0.30;;
19107;SDS011;9686;48.832;9.126;2023-05-10T00:05:22;1.33;;;0.47;;
19107;SDS011;9686;48.832;9.126;2023-05-10T00:07:47;2.57;;;0.30;;
19107;SDS011;9686;48.832;9.126;2023-05-10T00:10:13;0.40;;;0.40;;
19107;SDS011;9686;48.832;9.126;2023-05-10T00:12:38;0.33;;;0.33;;
19107;SDS011;9686;48.832;9.126;2023-05-10T00:15:03;0.40;;;0.40;;
19107;SDS011;9686;48.832;9.126;2023-05-10T00:17:30;0.30;;;0.30;;
19107;SDS011;9686;48.832;9.126;2023-05-10T00:19:55;0.30;;;0.30;;
19107;SDS011;9686;48.832;9.126;2023-05-10T00:22:20;0.20;;;0.20;;
19107;SDS011;9686;48.832;9.126;2023-05-10T00:24:46;0.20;;;0.20;;
19107;SDS011;9686;48.832;9.126;2023-05-10T00:27:11;0.30;;;0.30;;
19107;SDS011;9686;48.832;9.126;2023-05-10T00:29:37;0.47;;;0.30;;
19107;SDS011;9686;48.832;9.126;2023-05-10T00:32:02;0.30;;;0.30;;
19107;SDS011;9686;48.832;9.126;2023-05-10T00:34:27;0.37;;;0.30;;
19107;SDS011;9686;48.832;9.126;2023-05-10T00:36:53;0.30;;;0.30;;
19107;SDS011;9686;48.832;9.126;2023-05-10T00:39:18;0.30;;;0.30;;
19107;SDS011;9686;48.832;9.126;2023-05-10T00:41:43;0.30;;;0.30;;
19107;SDS011;9686;48.832;9.126;2023-05-10T00:44:09;0.60;;;0.40;;
19107;SDS011;9686;48.832;9.126;2023-05-10T00:46:34;0.13;;;0.13;;
19107;SDS011;9686;48.832;9.126;2023-05-10T00:49:00;0.30;;;0.30;;
19107;SDS011;9686;48.832;9.126;2023-05-10T00:51:26;0.20;;;0.20;;
19107;SDS011;9686;48.832;9.126;2023-05-10T00:53:52;0.30;;;0.30;;
19107;SDS011;9686;48.832;9.126;2023-05-10T00:56:17;0.37;;;0.37;;
19107;SDS011;9686;48.832;9.126;2023-05-10T00:58:43;0.40;;;0.37;;
19107;SDS011;9686;48.832;9.126;2023-05-10T01:01:08;0.30;;;0.30;;
19107;SDS011;9686;48.832;9.126;2023-05-10T01:03:34;0.30;;;0.30;;
19107;SDS011;9686;48.832;9.126;2023-05-10T01:06:00;0.30;;;0.30;;
19107;SDS011;9686;48.832;9.126;2023-05-10T01:08:26;0.30;;;0.30;;
19107;SDS011;9686;48.832;9.126;2023-05-10T01:10:52;0.40;;;0.40;;
19107;SDS011;9686;48.832;9.126;2023-05-10T01:13:39;0.50;;;0.50;;
19107;SDS011;9686;48.832;9.126;2023-05-10T01:16:04;1.03;;;0.53;;
19107;SDS011;9686;48.832;9.126;2023-05-10T01:18:31;0.60;;;0.60;;
19107;SDS011;9686;48.832;9.126;2023-05-10T01:30:01;0.50;;;0.50;;
19107;SDS011;9686;48.832;9.126;2023-05-10T01:33:35;0.40;;;0.40;;
19107;SDS011;9686;48.832;9.126;2023-05-10T01:35:37;0.50;;;0.50;;
19107;SDS011;9686;48.832;9.126;2023-05-10T01:38:10;0.40;;;0.40;;
19107;SDS011;9686;48.832;9.126;2023-05-10T01:40:48;0.40;;;0.40;;
19107;SDS011;9686;48.832;9.126;2023-05-10T01:43:26;0.70;;;0.70;;
19107;SDS011;9686;48.832;9.126;2023-05-10T01:46:00;0.50;;;0.50;;
19107;SDS011;9686;48.832;9.126;2023-05-10T01:48:35;0.40;;;0.40;;
19107;SDS011;9686;48.832;9.126;2023-05-10T01:51:04;0.70;;;0.70;;
19107;SDS011;9686;48.832;9.126;2023-05-10T01:53:31;0.60;;;0.60;;
19107;SDS011;9686;48.832;9.126;2023-05-10T01:56:00;0.40;;;0.40;;
19107;SDS011;9686;48.832;9.126;2023-05-10T01:58:27;0.70;;;0.70;;
19107;SDS011;9686;48.832;9.126;2023-05-10T02:00:55;0.70;;;0.70;;
19107;SDS011;9686;48.832;9.126;2023-05-10T02:03:24;0.50;;;0.50;;
19107;SDS011;9686;48.832;9.126;2023-05-10T02:05:52;0.50;;;0.50;;
19107;SDS011;9686;48.832;9.126;2023-05-10T02:08:19;0.50;;;0.50;;
19107;SDS011;9686;48.832;9.126;2023-05-10T02:10:46;0.60;;;0.60;;
19107;SDS011;9686;48.832;9.126;2023-05-10T02:13:15;0.80;;;0.80;;
19107;SDS011;9686;48.832;9.126;2023-05-10T02:15:41;0.63;;;0.63;;
19107;SDS011;9686;48.832;9.126;2023-05-10T02:18:08;0.43;;;0.43;;
19107;SDS011;9686;48.832;9.126;2023-05-10T02:20:36;0.60;;;0.60;;
19107;SDS011;9686;48.832;9.126;2023-05-10T02:23:02;0.60;;;0.60;;
19107;SDS011;9686;48.832;9.126;2023-05-10T02:25:29;0.70;;;0.63;;
19107;SDS011;9686;48.832;9.126;2023-05-10T02:27:56;0.87;;;0.70;;
19107;SDS011;9686;48.832;9.126;2023-05-10T02:30:25;0.60;;;0.60;;
19107;SDS011;9686;48.832;9.126;2023-05-10T02:32:51;0.60;;;0.60;;
19107;SDS011;9686;48.832;9.126;2023-05-10T02:35:17;0.80;;;0.80;;
19107;SDS011;9686;48.832;9.126;2023-05-10T02:37:43;1.57;;;0.60;;
19107;SDS011;9686;48.832;9.126;2023-05-10T02:40:10;0.60;;;0.60;;
19107;SDS011;9686;48.832;9.126;2023-05-10T02:42:37;0.60;;;0.50;;
19107;SDS011;9686;48.832;9.126;2023-05-10T02:45:07;0.67;;;0.67;;
19107;SDS011;9686;48.832;9.126;2023-05-10T02:47:36;0.70;;;0.70;;
19107;SDS011;9686;48.832;9.126;2023-05-10T02:50:02;0.80;;;0.80;;
19107;SDS011;9686;48.832;9.126;2023-05-10T02:52:35;1.03;;;0.80;;
19107;SDS011;9686;48.832;9.126;2023-05-10T02:55:04;1.63;;;0.83;;
19107;SDS011;9686;48.832;9.126;2023-05-10T02:57:34;0.70;;;0.70;;
19107;SDS011;9686;48.832;9.126;2023-05-10T03:00:02;1.13;;;0.77;;
19107;SDS011;9686;48.832;9.126;2023-05-10T03:02:28;0.97;;;0.93;;
19107;SDS011;9686;48.832;9.126;2023-05-10T03:04:55;1.23;;;1.03;;
19107;SDS011;9686;48.832;9.126;2023-05-10T03:07:20;0.70;;;0.70;;
19107;SDS011;9686;48.832;9.126;2023-05-10T03:09:46;0.80;;;0.80;;
19107;SDS011;9686;48.832;9.126;2023-05-10T03:18:01;2.10;;;1.93;;
19107;SDS011;9686;48.832;9.126;2023-05-10T03:20:36;2.63;;;1.93;;
19107;SDS011;9686;48.832;9.126;2023-05-10T03:26:06;2.00;;;1.90;;
19107;SDS011;9686;48.832;9.126;2023-05-10T03:28:33;1.57;;;1.47;;
19107;SDS011;9686;48.832;9.126;2023-05-10T03:31:00;2.30;;;1.97;;
19107;SDS011;9686;48.832;9.126;2023-05-10T03:33:27;2.20;;;2.00;;
19107;SDS011;9686;48.832;9.126;2023-05-10T03:35:52;2.13;;;1.97;;
19107;SDS011;9686;48.832;9.126;2023-05-10T03:38:18;2.40;;;2.20;;
19107;SDS011;9686;48.832;9.126;2023-05-10T03:40:43;2.83;;;2.60;;
19107;SDS011;9686;48.832;9.126;2023-05-10T03:43:08;2.90;;;2.70;;
19107;SDS011;9686;48.832;9.126;2023-05-10T03:45:34;5.87;;;2.50;;
19107;SDS011;9686;48.832;9.126;2023-05-10T03:47:59;3.70;;;2.90;;
19107;SDS011;9686;48.832;9.126;2023-05-10T03:50:24;3.33;;;2.80;;
19107;SDS011;9686;48.832;9.126;2023-05-10T03:52:51;3.07;;;2.63;;
19107;SDS011;9686;48.832;9.126;2023-05-10T03:55:16;2.90;;;2.37;;
19107;SDS011;9686;48.832;9.126;2023-05-10T03:57:42;2.97;;;2.67;;
19107;SDS011;9686;48.832;9.126;2023-05-10T04:00:07;2.20;;;2.00;;
19107;SDS011;9686;48.832;9.126;2023-05-10T04:02:33;2.60;;;2.40;;
19107;SDS011;9686;48.832;9.126;2023-05-10T04:04:58;2.63;;;2.10;;
19107;SDS011;9686;48.832;9.126;2023-05-10T04:07:24;1.83;;;1.73;;
19107;SDS011;9686;48.832;9.126;2023-05-10T04:09:49;2.40;;;1.70;;
19107;SDS011;9686;48.832;9.126;2023-05-10T04:12:14;2.03;;;1.70;;
19107;SDS011;9686;48.832;9.126;2023-05-10T04:14:40;1.70;;;1.60;;
19107;SDS011;9686;48.832;9.126;2023-05-10T04:17:05;2.10;;;1.90;;
19107;SDS011;9686;48.832;9.126;2023-05-10T04:19:31;2.33;;;1.60;;
19107;SDS011;9686;48.832;9.126;2023-05-10T04:21:57;2.63;;;1.90;;
19107;SDS011;9686;48.832;9.126;2023-05-10T04:24:22;1.60;;;1.50;;
19107;SDS011;9686;48.832;9.126;2023-05-10T04:26:48;1.50;;;1.40;;
19107;SDS011;9686;48.832;9.126;2023-05-10T04:29:13;1.57;;;1.40;;
19107;SDS011;9686;48.832;9.126;2023-05-10T04:31:38;1.43;;;1.33;;
19107;SDS011;9686;48.832;9.126;2023-05-10T04:34:04;1.33;;;1.23;;
19107;SDS011;9686;48.832;9.126;2023-05-10T04:36:30;1.00;;;0.90;;
19107;SDS011;9686;48.832;9.126;2023-05-10T04:38:55;1.10;;;1.00;;
19107;SDS011;9686;48.832;9.126;2023-05-10T04:41:20;2.57;;;1.33;;
19107;SDS011;9686;48.832;9.126;2023-05-10T04:43:46;0.90;;;0.90;;
19107;SDS011;9686;48.832;9.126;2023-05-10T04:46:13;0.77;;;0.77;;
19107;SDS011;9686;48.832;9.126;2023-05-10T04:48:39;0.93;;;0.93;;
19107;SDS011;9686;48.832;9.126;2023-05-10T04:51:04;1.00;;;0.90;;
19107;SDS011;9686;48.832;9.126;2023-05-10T04:53:31;1.57;;;1.30;;
19107;SDS011;9686;48.832;9.126;2023-05-10T04:55:56;0.90;;;0.90;;
19107;SDS011;9686;48.832;9.126;2023-05-10T04:58:21;0.83;;;0.83;;
19107;SDS011;9686;48.832;9.126;2023-05-10T05:00:47;0.93;;;0.90;;
19107;SDS011;9686;48.832;9.126;2023-05-10T05:03:12;1.10;;;1.00;;
19107;SDS011;9686;48.832;9.126;2023-05-10T05:05:37;1.10;;;1.00;;
19107;SDS011;9686;48.832;9.126;2023-05-10T05:08:03;1.30;;;1.20;;
19107;SDS011;9686;48.832;9.126;2023-05-10T05:10:28;1.47;;;1.20;;
19107;SDS011;9686;48.832;9.126;2023-05-10T05:12:54;1.30;;;1.10;;
19107;SDS011;9686;48.832;9.126;2023-05-10T05:15:19;0.97;;;0.97;;
19107;SDS011;9686;48.832;9.126;2023-05-10T05:17:44;2.00;;;1.23;;
19107;SDS011;9686;48.832;9.126;2023-05-10T05:20:10;1.30;;;1.20;;
19107;SDS011;9686;48.832;9.126;2023-05-10T05:22:36;1.73;;;1.00;;
19107;SDS011;9686;48.832;9.126;2023-05-10T05:25:02;1.83;;;1.03;;
19107;SDS011;9686;48.832;9.126;2023-05-10T05:27:28;1.17;;;1.03;;
19107;SDS011;9686;48.832;9.126;2023-05-10T05:29:55;1.87;;;1.10;;
19107;SDS011;9686;48.832;9.126;2023-05-10T05:32:22;1.27;;;1.17;;
19107;SDS011;9686;48.832;9.126;2023-05-10T05:34:48;1.33;;;1.20;;
19107;SDS011;9686;48.832;9.126;2023-05-10T05:37:22;1.20;;;1.10;;
19107;SDS011;9686;48.832;9.126;2023-05-10T05:39:49;1.53;;;1.07;;
19107;SDS011;9686;48.832;9.126;2023-05-10T05:42:15;0.97;;;0.97;;
19107;SDS011;9686;48.832;9.126;2023-05-10T05:44:41;1.80;;;1.13;;
19107;SDS011;9686;48.832;9.126;2023-05-10T05:47:06;1.10;;;1.00;;
19107;SDS011;9686;48.832;9.126;2023-05-10T05:49:32;1.00;;;0.80;;
19107;SDS011;9686;48.832;9.126;2023-05-10T05:52:01;1.83;;;1.20;;
19107;SDS011;9686;48.832;9.126;2023-05-10T05:54:27;1.00;;;1.00;;
19107;SDS011;9686;48.832;9.126;2023-05-10T05:57:00;1.33;;;1.10;;
19107;SDS011;9686;48.832;9.126;2023-05-10T05:59:25;0.90;;;0.90;;
19107;SDS011;9686;48.832;9.126;2023-05-10T06:01:51;1.30;;;1.20;;
19107;SDS011;9686;48.832;9.126;2023-05-10T06:04:17;1.13;;;1.10;;
19107;SDS011;9686;48.832;9.126;2023-05-10T06:06:43;2.90;;;1.20;;
19107;SDS011;9686;48.832;9.126;2023-05-10T06:09:08;1.10;;;0.90;;
19107;SDS011;9686;48.832;9.126;2023-05-10T06:11:34;1.07;;;1.03;;
19107;SDS011;9686;48.832;9.126;2023-05-10T06:14:00;3.17;;;1.00;;
19107;SDS011;9686;48.832;9.126;2023-05-10T06:16:26;2.57;;;1.90;;
19107;SDS011;9686;48.832;9.126;2023-05-10T06:18:52;3.17;;;1.30;;
19107;SDS011;9686;48.832;9.126;2023-05-10T06:21:17;1.93;;;0.90;;
19107;SDS011;9686;48.832;9.126;2023-05-10T06:23:42;2.23;;;1.30;;
19107;SDS011;9686;48.832;9.126;2023-05-10T06:26:08;1.20;;;1.10;;
19107;SDS011;9686;48.832;9.126;2023-05-10T06:28:34;1.40;;;1.30;;
19107;SDS011;9686;48.832;9.126;2023-05-10T06:30:59;2.60;;;1.50;;
19107;SDS011;9686;48.832;9.126;2023-05-10T06:33:25;1.27;;;1.17;;
19107;SDS011;9686;48.832;9.126;2023-05-10T06:35:50;1.40;;;1.27;;
19107;SDS011;9686;48.832;9.126;2023-05-10T06:38:16;1.30;;;1.10;;
19107;SDS011;9686;48.832;9.126;2023-05-10T06:40:41;1.20;;;1.10;;
19107;SDS011;9686;48.832;9.126;2023-05-10T06:43:07;0.97;;;0.93;;
19107;SDS011;9686;48.832;9.126;2023-05-10T06:45:33;1.20;;;1.10;;
19107;SDS011;9686;48.832;9.126;2023-05-10T06:47:58;1.30;;;1.10;;
19107;SDS011;9686;48.832;9.126;2023-05-10T06:50:23;1.77;;;1.10;;
19107;SDS011;9686;48.832;9.126;2023-05-10T06:52:49;1.03;;;1.03;;
19107;SDS011;9686;48.832;9.126;2023-05-10T06:55:14;1.30;;;1.20;;
19107;SDS011;9686;48.832;9.126;2023-05-10T06:57:40;1.23;;;1.10;;
19107;SDS011;9686;48.832;9.126;2023-05-10T07:00:05;1.13;;;0.90;;
19107;SDS011;9686;48.832;9.126;2023-05-10T07:02:31;1.30;;;0.80;;
19107;SDS011;9686;48.832;9.126;2023-05-10T07:04:56;1.07;;;1.03;;
19107;SDS011;9686;48.832;9.126;2023-05-10T07:07:22;0.97;;;0.97;;
19107;SDS011;9686;48.832;9.126;2023-05-10T07:09:47;1.70;;;1.10;;
19107;SDS011;9686;48.832;9.126;2023-05-10T07:12:14;0.83;;;0.83;;
19107;SDS011;9686;48.832;9.126;2023-05-10T07:14:40;0.87;;;0.87;;
19107;SDS011;9686;48.832;9.126;2023-05-10T07:17:05;1.10;;;1.00;;
19107;SDS011;9686;48.832;9.126;2023-05-10T07:19:30;1.10;;;1.00;;
19107;SDS011;9686;48.832;9.126;2023-05-10T07:21:57;1.63;;;1.23;;
19107;SDS011;9686;48.832;9.126;2023-05-10T07:24:23;2.40;;;0.97;;
19107;SDS011;9686;48.832;9.126;2023-05-10T07:26:49;3.10;;;0.80;;
19107;SDS011;9686;48.832;9.126;2023-05-10T07:29:14;0.90;;;0.63;;
19107;SDS011;9686;48.832;9.126;2023-05-10T07:31:39;0.67;;;0.67;;
19107;SDS011;9686;48.832;9.126;2023-05-10T07:34:06;1.63;;;1.13;;
19107;SDS011;9686;48.832;9.126;2023-05-10T07:36:32;0.73;;;0.70;;
19107;SDS011;9686;48.832;9.126;2023-05-10T07:38:57;2.00;;;1.10;;
19107;SDS011;9686;48.832;9.126;2023-05-10T07:41:23;1.03;;;0.87;;
19107;SDS011;9686;48.832;9.126;2023-05-10T07:43:48;1.30;;;0.83;;
19107;SDS011;9686;48.832;9.126;2023-05-10T07:46:13;1.07;;;0.90;;
19107;SDS011;9686;48.832;9.126;2023-05-10T07:48:39;1.67;;;1.57;;
19107;SDS011;9686;48.832;9.126;2023-05-10T07:51:04;0.67;;;0.67;;
19107;SDS011;9686;48.832;9.126;2023-05-10T07:53:31;1.47;;;1.07;;
19107;SDS011;9686;48.832;9.126;2023-05-10T07:55:57;1.07;;;0.80;;
19107;SDS011;9686;48.832;9.126;2023-05-10T07:58:23;0.60;;;0.60;;
19107;SDS011;9686;48.832;9.126;2023-05-10T08:00:49;0.77;;;0.77;;
19107;SDS011;9686;48.832;9.126;2023-05-10T08:03:15;0.80;;;0.70;;
19107;SDS011;9686;48.832;9.126;2023-05-10T08:05:40;1.90;;;0.70;;
19107;SDS011;9686;48.832;9.126;2023-05-10T08:08:05;1.37;;;0.70;;
19107;SDS011;9686;48.832;9.126;2023-05-10T08:10:31;0.83;;;0.70;;
19107;SDS011;9686;48.832;9.126;2023-05-10T08:12:56;1.03;;;0.90;;
19107;SDS011;9686;48.832;9.126;2023-05-10T08:15:23;0.60;;;0.60;;
19107;SDS011;9686;48.832;9.126;2023-05-10T08:17:48;0.73;;;0.73;;
19107;SDS011;9686;48.832;9.126;2023-05-10T08:20:14;0.90;;;0.50;;
19107;SDS011;9686;48.832;9.126;2023-05-10T08:22:41;0.60;;;0.57;;
19107;SDS011;9686;48.832;9.126;2023-05-10T08:25:07;0.60;;;0.60;;
19107;SDS011;9686;48.832;9.126;2023-05-10T08:27:32;0.77;;;0.30;;
19107;SDS011;9686;48.832;9.126;2023-05-10T08:29:58;0.33;;;0.30;;
19107;SDS011;9686;48.832;9.126;2023-05-10T08:32:23;0.40;;;0.40;;
19107;SDS011;9686;48.832;9.126;2023-05-10T08:34:48;0.53;;;0.53;;
19107;SDS011;9686;48.832;9.126;2023-05-10T08:37:13;0.40;;;0.40;;
19107;SDS011;9686;48.832;9.126;2023-05-10T08:39:39;0.40;;;0.40;;
19107;SDS011;9686;48.832;9.126;2023-05-10T08:42:05;0.50;;;0.40;;
19107;SDS011;9686;48.832;9.126;2023-05-10T08:44:32;0.30;;;0.30;;
19107;SDS011;9686;48.832;9.126;2023-05-10T08:47:02;0.40;;;0.40;;
19107;SDS011;9686;48.832;9.126;2023-05-10T08:49:30;0.30;;;0.30;;
19107;SDS011;9686;48.832;9.126;2023-05-10T08:51:57;0.60;;;0.40;;
19107;SDS011;9686;48.832;9.126;2023-05-10T08:54:24;0.40;;;0.40;;
19107;SDS011;9686;48.832;9.126;2023-05-10T08:56:50;0.53;;;0.40;;
19107;SDS011;9686;48.832;9.126;2023-05-10T08:59:15;0.40;;;0.40;;
19107;SDS011;9686;48.832;9.126;2023-05-10T09:01:40;0.40;;;0.40;;
19107;SDS011;9686;48.832;9.126;2023-05-10T09:04:09;0.83;;;0.40;;
19107;SDS011;9686;48.832;9.126;2023-05-10T09:06:34;0.37;;;0.37;;
19107;SDS011;9686;48.832;9.126;2023-05-10T09:09:00;0.93;;;0.43;;
19107;SDS011;9686;48.832;9.126;2023-05-10T09:11:26;0.40;;;0.40;;
19107;SDS011;9686;48.832;9.126;2023-05-10T09:13:53;2.20;;;0.40;;
19107;SDS011;9686;48.832;9.126;2023-05-10T09:16:20;0.40;;;0.40;;
19107;SDS011;9686;48.832;9.126;2023-05-10T09:18:45;2.00;;;0.33;;
19107;SDS011;9686;48.832;9.126;2023-05-10T09:21:11;0.80;;;0.50;;
19107;SDS011;9686;48.832;9.126;2023-05-10T09:23:37;0.40;;;0.40;;
19107;SDS011;9686;48.832;9.126;2023-05-10T09:26:03;0.30;;;0.30;;
19107;SDS011;9686;48.832;9.126;2023-05-10T09:28:33;1.03;;;0.50;;
19107;SDS011;9686;48.832;9.126;2023-05-10T09:30:59;0.50;;;0.40;;
19107;SDS011;9686;48.832;9.126;2023-05-10T09:33:25;1.23;;;0.40;;
19107;SDS011;9686;48.832;9.126;2023-05-10T09:35:51;1.97;;;0.57;;
19107;SDS011;9686;48.832;9.126;2023-05-10T09:38:16;0.30;;;0.30;;
19107;SDS011;9686;48.832;9.126;2023-05-10T09:40:42;1.13;;;0.40;;
19107;SDS011;9686;48.832;9.126;2023-05-10T09:43:19;0.40;;;0.40;;
19107;SDS011;9686;48.832;9.126;2023-05-10T09:45:45;0.40;;;0.40;;
19107;SDS011;9686;48.832;9.126;2023-05-10T09:48:14;0.60;;;0.60;;
19107;SDS011;9686;48.832;9.126;2023-05-10T09:50:39;0.93;;;0.50;;
19107;SDS011;9686;48.832;9.126;2023-05-10T09:53:06;0.80;;;0.50;;
19107;SDS011;9686;48.832;9.126;2023-05-10T09:55:42;0.60;;;0.60;;
19107;SDS011;9686;48.832;9.126;2023-05-10T09:58:15;1.03;;;0.67;;
19107;SDS011;9686;48.832;9.126;2023-05-10T10:00:41;0.43;;;0.40;;
19107;SDS011;9686;48.832;9.126;2023-05-10T10:03:14;0.40;;;0.40;;
19107;SDS011;9686;48.832;9.126;2023-05-10T10:05:41;0.60;;;0.40;;
19107;SDS011;9686;48.832;9.126;2023-05-10T10:08:08;1.80;;;0.50;;
19107;SDS011;9686;48.832;9.126;2023-05-10T10:10:33;0.40;;;0.40;;
19107;SDS011;9686;48.832;9.126;2023-05-10T10:12:59;0.90;;;0.50;;
19107;SDS011;9686;48.832;9.126;2023-05-10T10:15:25;0.40;;;0.40;;
19107;SDS011;9686;48.832;9.126;2023-05-10T10:17:51;0.40;;;0.40;;
19107;SDS011;9686;48.832;9.126;2023-05-10T10:20:17;0.60;;;0.50;;
19107;SDS011;9686;48.832;9.126;2023-05-10T10:22:44;0.50;;;0.47;;
19107;SDS011;9686;48.832;9.126;2023-05-10T10:25:15;0.40;;;0.40;;
19107;SDS011;9686;48.832;9.126;2023-05-10T10:33:01;0.50;;;0.50;;
19107;SDS011;9686;48.832;9.126;2023-05-10T10:35:29;0.70;;;0.70;;
19107;SDS011;9686;48.832;9.126;2023-05-10T10:37:55;1.33;;;0.43;;
19107;SDS011;9686;48.832;9.126;2023-05-10T10:42:54;0.30;;;0.30;;
19107;SDS011;9686;48.832;9.126;2023-05-10T10:45:20;0.50;;;0.50;;
19107;SDS011;9686;48.832;9.126;2023-05-10T10:47:47;1.03;;;0.50;;
19107;SDS011;9686;48.832;9.126;2023-05-10T10:50:13;0.37;;;0.37;;
19107;SDS011;9686;48.832;9.126;2023-05-10T10:52:39;0.30;;;0.30;;
19107;SDS011;9686;48.832;9.126;2023-05-10T10:57:55;0.47;;;0.30;;
19107;SDS011;9686;48.832;9.126;2023-05-10T11:00:35;0.80;;;0.50;;
19107;SDS011;9686;48.832;9.126;2023-05-10T11:03:11;0.30;;;0.30;;
19107;SDS011;9686;48.832;9.126;2023-05-10T11:08:43;0.30;;;0.30;;
19107;SDS011;9686;48.832;9.126;2023-05-10T11:11:08;0.30;;;0.30;;
19107;SDS011;9686;48.832;9.126;2023-05-10T11:19:07;0.50;;;0.50;;
19107;SDS011;9686;48.832;9.126;2023-05-10T11:21:44;1.90;;;0.40;;
19107;SDS011;9686;48.832;9.126;2023-05-10T11:24:13;1.20;;;0.60;;
19107;SDS011;9686;48.832;9.126;2023-05-10T11:26:49;1.80;;;0.50;;
19107;SDS011;9686;48.832;9.126;2023-05-10T11:29:16;1.33;;;0.40;;
19107;SDS011;9686;48.832;9.126;2023-05-10T11:31:41;0.40;;;0.40;;
19107;SDS011;9686;48.832;9.126;2023-05-10T11:34:09;1.13;;;0.60;;
19107;SDS011;9686;48.832;9.126;2023-05-10T11:36:35;0.67;;;0.40;;
19107;SDS011;9686;48.832;9.126;2023-05-10T11:39:01;0.40;;;0.40;;
19107;SDS011;9686;48.832;9.126;2023-05-10T11:41:28;1.10;;;0.33;;
19107;SDS011;9686;48.832;9.126;2023-05-10T11:43:55;0.57;;;0.57;;
19107;SDS011;9686;48.832;9.126;2023-05-10T11:46:23;0.83;;;0.50;;
19107;SDS011;9686;48.832;9.126;2023-05-10T11:48:50;0.73;;;0.50;;
19107;SDS011;9686;48.832;9.126;2023-05-10T11:51:20;0.60;;;0.50;;
19107;SDS011;9686;48.832;9.126;2023-05-10T11:53:47;1.67;;;0.87;;
19107;SDS011;9686;48.832;9.126;2023-05-10T11:56:13;1.40;;;0.50;;
19107;SDS011;9686;48.832;9.126;2023-05-10T11:58:39;1.53;;;0.43;;
19107;SDS011;9686;48.832;9.126;2023-05-10T12:01:05;0.83;;;0.50;;
19107;SDS011;9686;48.832;9.126;2023-05-10T12:03:32;2.00;;;0.93;;
19107;SDS011;9686;48.832;9.126;2023-05-10T12:05:58;0.57;;;0.57;;
19107;SDS011;9686;48.832;9.126;2023-05-10T12:08:25;0.70;;;0.60;;
19107;SDS011;9686;48.832;9.126;2023-05-10T12:10:51;1.43;;;0.50;;
19107;SDS011;9686;48.832;9.126;2023-05-10T12:13:17;0.93;;;0.60;;
19107;SDS011;9686;48.832;9.126;2023-05-10T12:15:43;0.87;;;0.50;;
19107;SDS011;9686;48.832;9.126;2023-05-10T12:18:09;2.30;;;0.90;;
19107;SDS011;9686;48.832;9.126;2023-05-10T12:20:38;0.70;;;0.50;;
19107;SDS011;9686;48.832;9.126;2023-05-10T12:23:04;1.27;;;0.70;;
19107;SDS011;9686;48.832;9.126;2023-05-10T12:25:31;2.50;;;0.90;;
19107;SDS011;9686;48.832;9.126;2023-05-10T12:28:00;0.63;;;0.50;;
19107;SDS011;9686;48.832;9.126;2023-05-10T12:30:30;1.27;;;0.70;;
19107;SDS011;9686;48.832;9.126;2023-05-10T12:33:15;0.83;;;0.50;;
19107;SDS011;9686;48.832;9.126;2023-05-10T12:35:46;1.37;;;0.60;;
19107;SDS011;9686;48.832;9.126;2023-05-10T12:38:24;0.57;;;0.50;;
19107;SDS011;9686;48.832;9.126;2023-05-10T12:41:04;0.30;;;0.30;;
19107;SDS011;9686;48.832;9.126;2023-05-10T12:43:32;1.30;;;0.70;;
19107;SDS011;9686;48.832;9.126;2023-05-10T12:45:58;0.77;;;0.60;;
19107;SDS011;9686;48.832;9.126;2023-05-10T12:48:29;1.50;;;0.50;;
19107;SDS011;9686;48.832;9.126;2023-05-10T12:50:56;0.57;;;0.40;;
19107;SDS011;9686;48.832;9.126;2023-05-10T12:53:21;2.83;;;0.50;;
19107;SDS011;9686;48.832;9.126;2023-05-10T12:55:47;0.83;;;0.40;;
19107;SDS011;9686;48.832;9.126;2023-05-10T12:58:12;1.53;;;0.50;;
19107;SDS011;9686;48.832;9.126;2023-05-10T13:00:37;0.50;;;0.50;;
19107;SDS011;9686;48.832;9.126;2023-05-10T13:03:03;1.07;;;0.67;;
19107;SDS011;9686;48.832;9.126;2023-05-10T13:05:30;0.90;;;0.60;;
19107;SDS011;9686;48.832;9.126;2023-05-10T13:07:57;0.80;;;0.70;;
19107;SDS011;9686;48.832;9.126;2023-05-10T13:10:22;0.67;;;0.60;;
19107;SDS011;9686;48.832;9.126;2023-05-10T13:12:48;0.67;;;0.67;;
19107;SDS011;9686;48.832;9.126;2023-05-10T13:15:14;0.73;;;0.50;;
19107;SDS011;9686;48.832;9.126;2023-05-10T13:17:39;0.57;;;0.50;;
19107;SDS011;9686;48.832;9.126;2023-05-10T13:20:05;1.13;;;0.60;;
19107;SDS011;9686;48.832;9.126;2023-05-10T13:22:31;0.47;;;0.47;;
19107;SDS011;9686;48.832;9.126;2023-05-10T13:24:56;1.20;;;0.80;;
19107;SDS011;9686;48.832;9.126;2023-05-10T13:27:21;0.73;;;0.43;;
19107;SDS011;9686;48.832;9.126;2023-05-10T13:29:47;0.60;;;0.60;;
19107;SDS011;9686;48.832;9.126;2023-05-10T13:32:12;1.10;;;0.50;;
19107;SDS011;9686;48.832;9.126;2023-05-10T13:34:37;1.90;;;0.70;;
19107;SDS011;9686;48.832;9.126;2023-05-10T13:37:03;1.73;;;0.60;;
19107;SDS011;9686;48.832;9.126;2023-05-10T13:39:28;2.27;;;0.60;;
19107;SDS011;9686;48.832;9.126;2023-05-10T13:41:58;0.40;;;0.40;;
19107;SDS011;9686;48.832;9.126;2023-05-10T13:44:23;1.23;;;0.50;;
19107;SDS011;9686;48.832;9.126;2023-05-10T13:46:48;1.17;;;0.50;;
19107;SDS011;9686;48.832;9.126;2023-05-10T13:49:14;2.00;;;0.50;;
19107;SDS011;9686;48.832;9.126;2023-05-10T13:51:39;1.47;;;0.63;;
19107;SDS011;9686;48.832;9.126;2023-05-10T13:54:05;1.07;;;0.60;;
19107;SDS011;9686;48.832;9.126;2023-05-10T13:56:30;0.87;;;0.60;;
19107;SDS011;9686;48.832;9.126;2023-05-10T13:58:56;0.60;;;0.60;;
19107;SDS011;9686;48.832;9.126;2023-05-10T14:01:23;1.30;;;0.60;;
19107;SDS011;9686;48.832;9.126;2023-05-10T14:03:48;1.20;;;0.63;;
19107;SDS011;9686;48.832;9.126;2023-05-10T14:06:13;0.50;;;0.50;;
19107;SDS011;9686;48.832;9.126;2023-05-10T14:08:39;2.80;;;0.60;;
19107;SDS011;9686;48.832;9.126;2023-05-10T14:11:04;0.93;;;0.60;;
19107;SDS011;9686;48.832;9.126;2023-05-10T14:13:29;1.83;;;0.53;;
19107;SDS011;9686;48.832;9.126;2023-05-10T14:15:55;4.53;;;0.83;;
19107;SDS011;9686;48.832;9.126;2023-05-10T14:18:20;3.13;;;0.63;;
19107;SDS011;9686;48.832;9.126;2023-05-10T14:20:45;0.90;;;0.70;;
19107;SDS011;9686;48.832;9.126;2023-05-10T14:23:11;0.83;;;0.53;;
19107;SDS011;9686;48.832;9.126;2023-05-10T14:25:37;0.40;;;0.40;;
19107;SDS011;9686;48.832;9.126;2023-05-10T14:28:03;0.97;;;0.50;;
19107;SDS011;9686;48.832;9.126;2023-05-10T14:30:29;0.50;;;0.47;;
19107;SDS011;9686;48.832;9.126;2023-05-10T14:32:54;0.53;;;0.50;;
19107;SDS011;9686;48.832;9.126;2023-05-10T14:35:20;1.57;;;0.47;;
19107;SDS011;9686;48.832;9.126;2023-05-10T14:37:45;0.80;;;0.80;;
19107;SDS011;9686;48.832;9.126;2023-05-10T14:40:11;0.40;;;0.30;;
19107;SDS011;9686;48.832;9.126;2023-05-10T14:42:37;1.07;;;0.50;;
19107;SDS011;9686;48.832;9.126;2023-05-10T14:45:03;1.00;;;0.43;;
19107;SDS011;9686;48.832;9.126;2023-05-10T14:47:28;1.23;;;0.60;;
19107;SDS011;9686;48.832;9.126;2023-05-10T14:49:54;1.33;;;0.80;;
19107;SDS011;9686;48.832;9.126;2023-05-10T14:52:19;1.17;;;0.50;;
19107;SDS011;9686;48.832;9.126;2023-05-10T14:54:44;0.50;;;0.47;;
19107;SDS011;9686;48.832;9.126;2023-05-10T14:57:10;0.30;;;0.30;;
19107;SDS011;9686;48.832;9.126;2023-05-10T14:59:35;1.37;;;0.50;;
19107;SDS011;9686;48.832;9.126;2023-05-10T15:02:00;0.70;;;0.63;;
19107;SDS011;9686;48.832;9.126;2023-05-10T15:04:26;0.40;;;0.40;;
19107;SDS011;9686;48.832;9.126;2023-05-10T15:06:52;0.50;;;0.50;;
19107;SDS011;9686;48.832;9.126;2023-05-10T15:09:20;1.90;;;1.63;;
19107;SDS011;9686;48.832;9.126;2023-05-10T15:11:45;0.80;;;0.40;;
19107;SDS011;9686;48.832;9.126;2023-05-10T15:14:11;1.10;;;0.40;;
19107;SDS011;9686;48.832;9.126;2023-05-10T15:16:36;2.17;;;0.50;;
19107;SDS011;9686;48.832;9.126;2023-05-10T15:19:02;0.30;;;0.30;;
19107;SDS011;9686;48.832;9.126;2023-05-10T15:21:27;0.50;;;0.50;;
19107;SDS011;9686;48.832;9.126;2023-05-10T15:23:53;0.30;;;0.30;;
19107;SDS011;9686;48.832;9.126;2023-05-10T15:26:21;0.50;;;0.50;;
19107;SDS011;9686;48.832;9.126;2023-05-10T15:28:47;0.87;;;0.63;;
19107;SDS011;9686;48.832;9.126;2023-05-10T15:31:12;3.70;;;0.77;;
19107;SDS011;9686;48.832;9.126;2023-05-10T15:33:37;0.57;;;0.40;;